Caledonia, WI

8:15 AM CST on November 26, 2014 (GMT -0600)
Kenosha Regional | Change Station
CLOSE
Current Station
Airport
Location: Kenosha,
Elevation: 741 ft
Nearby Weather Stations

Elev 741 ft 42.60 °N, 87.94 °W | Updated 22 minutes ago

Mostly Cloudy
Mostly Cloudy
16 °F
Feels Like 7 °F
N
6
Wind Variable Wind from WNW

Today
High -- | Low -- °F
--% Chance of Precip.
Yesterday
High -- | Low -- °F
Precip. -- in
6:57 AM 4:20 PM
Waxing Crescent, 20% visible
Pressure 30.20 in
Visibility 1.5 miles
Clouds Mostly Cloudy 2000 ft
Windchill 7 °F
Dew Point 13 °F
Humidity 88%
Rainfall 0.00 in
Snow Depth Not available.
UV 0 out of 12
Pollen .10 out of 12
Air Quality Not available.
Flu Activity Not available.
METAR KENW 261353Z 29005KT 1 1/2SM BR BKN020 M09/M11 A3015 RMK AO2 SLP225 T10891106

More Conditions Fewer Conditions

Pressure 30.20 in
Visibility 1.5 miles
Clouds Mostly Cloudy 2000 ft
Windchill 7 °F
Dew Point 13 °F
Humidity 88%
Rainfall 0.00 in
Snow Depth Not available.
UV 0 out of 12
Pollen .10 out of 12
Air Quality Not available.
Flu Activity Not available.
METAR KENW 261353Z 29005KT 1 1/2SM BR BKN020 M09/M11 A3015 RMK AO2 SLP225 T10891106

More Conditions Fewer Conditions

10-Day Weather Forecast

Almanac

Astronomy

Nov. 26, 2014 Rise Set
Actual Time
Civil Twilight
Nautical Twilight
Astronomical Twilight
Moon
Length of Visible Light
Length of Day
Tomorrow will be .
, % of the Moon is Illuminated

Today's Extremes

State Highs State Lows

Community

WunderPhotos

Upload Photos

1,773,751 photos uploaded!

WunderBlogs® & News

Nearby

Air Quality

  Air Quality AQ Index Pollutant
Not available.

Snow Depth

Station Depth Elevation

Earthquake Activity

City Distance Mag. Time & Date
Minimum magnitude displayed is 2.5.

Coastal Water Temperatures

Place Temperature

Nearby Weather Stations